Gillette, WY

12:54 PM MDT on July 30, 2014 (GMT -0600)
Gillette-Campbell County (KGCC) Elev 4364 ft | 44.34 °N, 105.54 °W | Change Station

Current weather conditions updated 1 hour ago

Clear
Clear
78 °F
Feels Like 78 °F
N
9
Wind Variable Wind from NNE

Today is forecast to be Much Warmer than yesterday.

Today
High -- | Low -- °F
--% Chance of Precip.
Yesterday
High -- | Low -- °F
Precip. -- in
5:47 AM 8:30 PM
Waxing Crescent, 13% visible
Pressure 30.15 in
Visibility 10.0 miles
Clouds Clear
Dew Point 42 °F
Humidity 28%
Rainfall 0.00 in
Snow Depth Not available.
UV 10 out of 12
Pollen 6.60 out of 12
Air Quality Not available.
Flu Activity Not available.
METAR KGCC 301753Z AUTO 03008KT 10SM CLR 26/06 A3027 RMK AO2 SLP208 T02560056 10261 20139 58002

More Conditions Fewer Conditions

Pressure 30.15 in
Visibility 10.0 miles
Clouds Clear
Dew Point 42 °F
Humidity 28%
Rainfall 0.00 in
Snow Depth Not available.
UV 10 out of 12
Pollen 6.60 out of 12
Air Quality Not available.
Flu Activity Not available.
METAR KGCC 301753Z AUTO 03008KT 10SM CLR 26/06 A3027 RMK AO2 SLP208 T02560056 10261 20139 58002

More Conditions Fewer Conditions

10-Day Weather Forecast

Almanac

Astronomy

Jul. 30, 2014 Rise Set
Actual Time 5:47 AM MDT 8:30 PM MDT
Civil Twilight 5:13 AM MDT 9:03 PM MDT
Nautical Twilight 4:30 AM MDT 9:46 PM MDT
Astronomical Twilight 3:41 AM MDT 10:35 PM MDT
Moon 9:32 AM MDT 10:02 PM MDT
Length of Visible Light 15h 50m
Length of Day
14h 43m
Tomorrow will be 2m 19s shorter.
Waxing Crescent, 13% of the Moon is Illuminated
Today
Waxing Crescent
Aug 3
First Quarter
Aug 10
Full
Aug 17
Last Quarter
Aug 25
New

Today's Extremes

State Highs State Lows

Community

WunderPhotos

Upload Photos

1,739,152 photos uploaded!

WunderBlogs® & News

Nearby

Snow Depth

Station Depth Elevation
Cole Canyon 0 in 5910 ft
Sucker Creek 0 in 8880 ft
Bone Springs Divide 0 in 9350 ft
Middle Powder 0 in 7760 ft
Grave Springs 1 in 8550 ft

Earthquake Activity

City Distance Mag. Time & Date
No recent earthquake activity has been reported nearby.
Minimum magnitude displayed is 2.5.

Coastal Water Temperatures

Place Temperature
No Stations Reporting

Nearby Weather Stations

Station Location Temp. Heat Index Dew Point Humidity Wind Precip. Elev Updated Type
RAWS ECHETA WY, Gillette, WY 78 °F 78 °F 39 °F 25% North  at  9 mph 0.00 in / hr 4396 ft 11:51 AM MDT MADIS

Show More Stations Show Fewer Stations